Flight Track Log - Related Links

Times and Time Zones

All times are in EDT time to prevent confusion due to time zone crossing. See the PRY4 flight status page for this flight to view local times or setup timezone preferences in your user account.

Time Position Orientation Groundspeed Altitude Reporting Facility
EDT Latitude Longitude Course Direction KTS MPH feet Rate Location/Type
Sat 01:07:28 AM 35.4211 -86.1967 32° Northeast 148 170 6,000  Level Indianapolis Center
Sat 01:08:28 AM 35.4508 -86.1742 32° Northeast 126 145 7,800 1,645 Climbing Indianapolis Center
Sat 01:09:32 AM 35.4803 -86.1478 36° Northeast 139 160 9,400 1,645 Climbing Memphis Center
Sat 01:10:32 AM 35.5128 -86.1206 34° Northeast 134 154 11,200 1,750 Climbing Memphis Center
Sat 01:11:32 AM 35.5472 -86.0958 30° Northeast 134 154 12,900 1,650 Climbing Memphis Center
Sat 01:12:32 AM 35.5819 -86.0711 30° Northeast 140 161 14,500 1,750 Climbing Memphis Center
Sat 01:13:32 AM 35.6228 -86.0433 29° Northeast 140 161 16,400 1,700 Climbing Memphis Center
Sat 01:14:32 AM 35.6592 -86.0133 34° Northeast 140 161 17,900 1,500 Climbing Memphis Center
Sat 01:15:32 AM 35.6958 -85.9858 31° Northeast 140 161 19,400 1,400 Climbing Memphis Center
Sat 01:16:32 AM 35.7344 -85.9583 30° Northeast 146 168 20,700 1,250 Climbing Memphis Center
Sat 01:17:32 AM 35.7689 -85.9308 33° Northeast 151 174 21,900 1,150 Climbing Memphis Center
Sat 01:18:32 AM 35.8094 -85.9006 31° Northeast 161 185 23,000 1,100 Climbing Memphis Center
Sat 01:19:32 AM 35.8481 -85.8678 35° Northeast 168 193 24,100 1,000 Climbing Memphis Center
Sat 01:20:32 AM 35.8883 -85.8347 34° Northeast 168 193 25,000 950 Climbing Memphis Center
Sat 01:21:32 AM 35.9289 -85.8044 31° Northeast 168 193 26,000 950 Climbing Memphis Center
Sat 01:22:32 AM 35.9697 -85.7739 31° Northeast 168 193 26,900 331 Climbing Memphis Center
Sat 01:24:33 AM 36.0681 -85.6997 31° Northeast 211 243 27,000 33 Climbing Indianapolis Center
Sat 01:25:33 AM 36.1211 -85.6581 32° Northeast 223 257 27,000  Level Indianapolis Center
Sat 01:26:33 AM 36.1750 -85.6164 32° Northeast 227 261 27,000  Level Indianapolis Center
Sat 01:27:34 AM 36.2292 -85.5744 32° Northeast 228 262 27,000  Level Indianapolis Center
Sat 01:28:34 AM 36.2844 -85.5311 32° Northeast 233 268 27,000  Level Indianapolis Center
Sat 01:29:34 AM 36.3386 -85.4897 32° Northeast 230 265 27,000  Level Indianapolis Center
Sat 01:30:35 AM 36.3931 -85.4472 32° Northeast 230 265 27,000  Level Indianapolis Center
Sat 01:31:35 AM 36.4475 -85.4050 32° Northeast 230 265 27,000  Level Indianapolis Center
Sat 01:32:35 AM 36.5003 -85.3625 33° Northeast 227 261 27,000  Level Indianapolis Center
Sat 01:33:35 AM 36.5544 -85.3203 32° Northeast 230 265 27,000  Level Indianapolis Center
Sat 01:34:36 AM 36.6089 -85.2781 32° Northeast 230 265 27,000  Level Indianapolis Center
Sat 01:35:36 AM 36.6631 -85.2344 33° Northeast 231 266 27,000  Level Indianapolis Center
Sat 01:36:36 AM 36.7181 -85.1919 32° Northeast 232 267 27,000  Level Indianapolis Center
Sat 01:37:36 AM 36.7719 -85.1492 32° Northeast 230 265 27,000  Level Indianapolis Center
Sat 01:38:37 AM 36.8256 -85.1075 32° Northeast 228 262 27,000  Level Indianapolis Center
Sat 01:39:37 AM 36.8789 -85.0644 33° Northeast 229 264 27,000  Level Indianapolis Center
Sat 01:40:37 AM 36.9328 -85.0217 32° Northeast 230 265 27,000  Level Indianapolis Center
Sat 01:41:37 AM 36.9858 -84.9797 32° Northeast 227 261 27,000  Level Indianapolis Center
Sat 01:42:38 AM 37.0458 -84.9322 32° Northeast 228 262 27,000  Level Indianapolis Center
Sat 01:43:38 AM 37.0983 -84.8897 33° Northeast 225 259 27,000  Level Indianapolis Center
Sat 01:44:38 AM 37.1500 -84.8481 33° Northeast 221 254 27,000  Level Indianapolis Center
Sat 01:45:38 AM 37.2033 -84.8061 32° Northeast 225 259 27,000  Level Indianapolis Center
Sat 01:46:39 AM 37.2558 -84.7639 33° Northeast 224 258 27,000  Level Indianapolis Center
Sat 01:47:39 AM 37.3092 -84.7208 33° Northeast 225 259 27,000  Level Indianapolis Center
Sat 01:48:39 AM 37.3625 -84.6778 33° Northeast 227 261 27,000  Level Indianapolis Center
Sat 01:49:39 AM 37.4156 -84.6356 32° Northeast 226 260 27,000  Level Indianapolis Center
Sat 01:50:40 AM 37.4681 -84.5933 33° Northeast 223 257 27,000  Level Indianapolis Center
Sat 01:51:40 AM 37.5217 -84.5497 33° Northeast 228 262 27,000  Level Indianapolis Center
Sat 01:52:40 AM 37.5747 -84.5072 32° Northeast 227 261 27,000  Level Indianapolis Center
Sat 01:53:40 AM 37.6269 -84.4642 33° Northeast 225 259 27,000  Level Indianapolis Center
Sat 01:54:40 AM 37.6806 -84.4219 32° Northeast 227 261 27,000  Level Indianapolis Center
Sat 01:55:41 AM 37.7339 -84.3772 34° Northeast 229 264 27,000  Level Indianapolis Center
Sat 01:56:41 AM 37.7878 -84.3339 32° Northeast 227 261 27,000  Level Indianapolis Center
Sat 01:57:41 AM 37.8414 -84.2908 32° Northeast 228 262 27,000  Level Indianapolis Center
Sat 01:58:41 AM 37.8958 -84.2461 33° Northeast 231 266 27,000  Level Indianapolis Center
Sat 01:59:41 AM 37.9489 -84.2017 33° Northeast 230 265 27,000  Level Indianapolis Center
Sat 02:00:42 AM 38.0019 -84.1569 34° Northeast 229 264 27,000  Level Indianapolis Center
Sat 02:01:42 AM 38.0550 -84.1139 33° Northeast 227 261 27,000  Level Indianapolis Center
Sat 02:02:42 AM 38.1083 -84.0708 32° Northeast 226 260 27,000  Level Indianapolis Center
Sat 02:03:42 AM 38.1606 -84.0261 34° Northeast 228 262 27,000  Level Indianapolis Center
Sat 02:04:42 AM 38.2131 -83.9825 33° Northeast 224 258 27,000  Level Indianapolis Center
Sat 02:05:43 AM 38.2656 -83.9392 33° Northeast 225 259 27,000  Level Indianapolis Center
Sat 02:06:43 AM 38.3186 -83.8950 33° Northeast 226 260 27,000  Level Indianapolis Center
Sat 02:07:43 AM 38.3711 -83.8517 33° Northeast 225 259 27,000  Level Indianapolis Center
Sat 02:08:43 AM 38.4236 -83.8081 33° Northeast 224 258 27,000  Level Indianapolis Center
Sat 02:09:43 AM 38.4761 -83.7644 33° Northeast 224 258 27,000  Level Indianapolis Center
Sat 02:10:44 AM 38.5292 -83.7208 33° Northeast 227 261 27,000  Level Indianapolis Center
Sat 02:11:44 AM 38.5819 -83.6753 34° Northeast 227 261 27,000  Level Indianapolis Center
Sat 02:12:44 AM 38.6344 -83.6311 33° Northeast 226 260 27,000  Level Indianapolis Center
Sat 02:13:44 AM 38.6858 -83.5892 32° Northeast 228 262 27,000  Level Indianapolis Center
Sat 02:14:44 AM 38.7381 -83.5447 34° Northeast 226 260 27,000  Level Indianapolis Center
Sat 02:15:44 AM 38.7903 -83.5006 33° Northeast 223 257 27,000  Level Indianapolis Center
Sat 02:16:45 AM 38.8433 -83.4561 33° Northeast 224 258 27,000  Level Indianapolis Center
Sat 02:17:45 AM 38.8958 -83.4114 34° Northeast 225 259 27,000  Level Indianapolis Center
Sat 02:18:45 AM 38.9494 -83.3664 33° Northeast 225 259 27,000  Level Indianapolis Center
Sat 02:19:45 AM 38.9922 -83.3303 33° Northeast 225 259 27,000  Level Indianapolis Center
Sat 02:20:45 AM 39.0444 -83.2856 34° Northeast 223 257 27,000  Level Indianapolis Center
Sat 02:21:45 AM 39.0967 -83.2408 34° Northeast 224 258 27,000  Level Indianapolis Center
Sat 02:22:46 AM 39.1486 -83.1964 34° Northeast 223 257 27,000  Level Indianapolis Center
Sat 02:23:46 AM 39.2011 -83.1517 33° Northeast 225 259 27,000  Level Indianapolis Center
Sat 02:24:46 AM 39.2525 -83.1083 33° Northeast 221 254 27,000  Level Indianapolis Center
Sat 02:25:46 AM 39.3047 -83.0625 34° Northeast 224 258 27,000  Level Indianapolis Center
Sat 02:26:46 AM 39.3569 -83.0181 33° Northeast 224 258 27,000  Level Indianapolis Center
Sat 02:27:46 AM 39.4092 -82.9731 34° Northeast 225 259 27,000 -500 Level Indianapolis Center
Sat 02:28:46 AM 39.4642 -82.9258 34° Northeast 235 270 26,000 -1,091 Descending Indianapolis Center
Sat 02:29:47 AM 39.5247 -82.8739 33° Northeast 254 292 24,800 -1,140 Descending Indianapolis Center
Sat 02:30:47 AM 39.5861 -82.8197 34° Northeast 262 302 23,700 -1,150 Descending Indianapolis Center
Sat 02:31:47 AM 39.6486 -82.7653 34° Northeast 267 307 22,500 -1,200 Descending Indianapolis Center
Sat 02:32:47 AM 39.7114 -82.7111 34° Northeast 268 308 21,300 -1,200 Descending Indianapolis Center
Sat 02:33:47 AM 39.7744 -82.6569 33° Northeast 270 311 20,100 -1,200 Descending Indianapolis Center
Sat 02:34:47 AM 39.8353 -82.6025 34° Northeast 266 306 18,900 -1,150 Descending Indianapolis Center
Sat 02:35:47 AM 39.8961 -82.5500 34° Northeast 261 300 17,800 -1,091 Descending Indianapolis Center
Sat 02:36:48 AM 39.9575 -82.4964 34° Northeast 263 303 16,700 -1,140 Descending Indianapolis Center
Sat 02:37:48 AM 40.0183 -82.4431 34° Northeast 261 300 15,500 -1,200 Descending Indianapolis Center
Sat 02:38:48 AM 40.0786 -82.3889 35° Northeast 262 302 14,300 -1,213 Descending Indianapolis Center
Sat 02:39:17 AM 40.1114 -82.3639 30° Northeast 264 304 13,700 -1,200 Descending Indianapolis Center
Sat 02:39:48 AM 40.1400 -82.3353 37° Northeast 263 303 13,100 -1,154 Descending Indianapolis Center
Sat 02:40:35 AM 40.1908 -82.2933 32° Northeast 263 303 12,200 -1,167 Descending Indianapolis Center
Sat 02:41:36 AM 40.2506 -82.2422 33° Northeast 262 302 11,000 -1,190 Descending Indianapolis Center
Sat 02:42:36 AM 40.3103 -82.1883 35° Northeast 259 298 9,800 -1,240 Descending Indianapolis Center
Sat 02:43:37 AM 40.3722 -82.1347 33° Northeast 250 288 8,500 -1,230 Descending Indianapolis Center
Sat 02:44:38 AM 40.4275 -82.0831 35° Northeast 247 284 7,300 -1,180 Descending Indianapolis Center

Login

Don't have an account? Register now (free) for customized features, flight alerts, and more!